Flight Track Log - Related Links

Times and Time Zones

All times are in EDT time to prevent confusion due to time zone crossing. See the CCA1713 flight status page for this flight to view local times or setup timezone preferences in your user account.

Time Position Orientation Groundspeed Altitude Reporting Facility
EDT Latitude Longitude Course Direction KTS MPH feet Rate Location/Type
12:24PM 32.5081 118.6410 343° North 480 552 23,900  Level FlightAware ADS-B (ZSSL)
12:53PM 36.0211 117.9391 43° Northeast 465 535 27,600 125 Climbing FlightAware ADS-B
12:53PM 36.0675 117.9933 41° Northeast 461 531 27,600  Level FlightAware ADS-B
12:54PM 36.1195 118.0370 27° Northeast 458 527 27,600  Level FlightAware ADS-B
12:54PM 36.1607 118.0562 15° North 457 526 27,600  Level FlightAware ADS-B
12:55PM 36.2021 118.0629 North 454 522 27,600  Level FlightAware ADS-B
12:55PM 36.2226 118.0619 356° North 452 520 27,600  Level FlightAware ADS-B
12:56PM 36.3247 118.0343 347° North 449 517 27,600  Level FlightAware ADS-B
12:57PM 36.5477 117.9769 349° North 442 509 27,600  Level FlightAware ADS-B
12:58PM 36.6063 117.9620 349° North 439 505 27,600  Level FlightAware ADS-B
12:58PM 36.6652 117.9465 348° North 439 505 27,600  Level FlightAware ADS-B
12:59PM 36.7258 117.9303 348° North 440 506 27,600  Level FlightAware ADS-B
12:59PM 36.7773 117.9167 349° North 441 507 27,600  Level FlightAware ADS-B
01:00PM 36.8334 117.9025 349° North 441 507 27,600  Level FlightAware ADS-B
01:00PM 36.9055 117.8844 349° North 442 509 27,600  Level FlightAware ADS-B
01:01PM 36.9670 117.8692 347° North 440 506 27,600  Level FlightAware ADS-B
01:01PM 37.0030 117.8527 335° Northwest 433 498 27,600  Level FlightAware ADS-B
01:02PM 37.0555 117.8131 330° Northwest 431 496 27,600  Level FlightAware ADS-B
01:03PM 37.1488 117.7617 338° Northwest 438 504 27,600  Level FlightAware ADS-B
01:03PM 37.1992 117.7356 338° Northwest 451 519 27,600  Level FlightAware ADS-B
01:04PM 37.2609 117.7048 342° North 449 517 27,600  Level FlightAware ADS-B
01:04PM 37.3415 117.6804 347° North 449 517 27,600  Level FlightAware ADS-B
01:05PM 37.4040 117.6615 352° North 452 520 27,600  Level FlightAware ADS-B
01:05PM 37.4912 117.6574 359° North 459 528 27,600  Level FlightAware ADS-B
01:06PM 37.5557 117.6547 358° North 459 528 27,600  Level FlightAware ADS-B
01:06PM 37.6190 117.6510 358° North 460 529 27,600  Level FlightAware ADS-B
01:07PM 37.6727 117.6480 North 462 532 27,600  Level FlightAware ADS-B
01:08PM 37.7601 117.6536 North 463 533 27,600 86 Level FlightAware ADS-B
01:08PM 37.8231 117.6576 North 463 533 27,700  Climbing FlightAware ADS-B
01:09PM 37.8865 117.6609 North 462 532 27,600 -98 Descending FlightAware ADS-B
01:09PM 37.9523 117.6641 North 462 532 27,600 -500 Level FlightAware ADS-B
01:10PM 38.0151 117.6635 353° North 460 529 27,100 -1,347 Descending FlightAware ADS-B
01:10PM 38.0575 117.6492 339° North 462 532 26,500 -1,862 Descending FlightAware ADS-B
01:10PM 38.0752 117.6381 331° Northwest 463 533 26,200 -1,800 Descending FlightAware ADS-B
01:11PM 38.1307 117.5957 329° Northwest 466 536 25,300 -1,800 Descending FlightAware ADS-B
01:11PM 38.1871 117.5525 329° Northwest 469 540 24,400 -1,859 Descending FlightAware ADS-B
01:12PM 38.2611 117.4953 329° Northwest 465 535 23,100 -1,886 Descending FlightAware ADS-B
01:12PM 38.3162 117.4524 329° Northwest 466 536 22,200 -1,831 Descending FlightAware ADS-B
01:13PM 38.3714 117.4096 329° Northwest 458 527 21,300 -1,900 Descending FlightAware ADS-B
01:13PM 38.4254 117.3677 329° Northwest 448 516 20,300 -1,600 Descending FlightAware ADS-B
01:14PM 38.4774 117.3271 329° Northwest 443 510 19,700 -514 Descending FlightAware ADS-B
01:14PM 38.5487 117.2715 329° Northwest 445 512 19,700  Level FlightAware ADS-B
01:15PM 38.5858 117.2513 345° North 446 513 19,700  Level FlightAware ADS-B
01:15PM 38.6053 117.2472 355° North 447 514 19,700 -450 Level FlightAware ADS-B
01:15PM 38.6678 117.2416 350° North 440 506 19,400 -900 Descending FlightAware ADS-B
01:16PM 38.6874 117.2344 340° North 439 505 19,100 -1,448 Descending FlightAware ADS-B
01:16PM 38.7230 117.2093 329° Northwest 439 505 18,700 -1,440 Descending FlightAware ADS-B
01:16PM 38.7748 117.1688 329° Northwest 435 501 17,900 -1,500 Descending FlightAware ADS-B
01:17PM 38.8252 117.1295 329° Northwest 430 495 17,200 -1,500 Descending FlightAware ADS-B
01:17PM 38.8762 117.0893 329° Northwest 427 491 16,400 -1,475 Descending FlightAware ADS-B
01:18PM 38.9273 117.0489 329° Northwest 425 489 15,700 -1,440 Descending FlightAware ADS-B
01:18PM 38.9591 117.0236 329° Northwest 418 481 15,200 -684 Descending FlightAware ADS-B
01:19PM 39.0583 116.9448 329° Northwest 416 479 14,800 -424 Descending FlightAware ADS-B
01:20PM 39.1016 116.9168 342° North 417 480 14,600 -514 Descending FlightAware ADS-B
01:20PM 39.1193 116.9124 353° North 415 478 14,500 -600 Descending FlightAware ADS-B
01:20PM 39.1334 116.9121 North 413 475 14,400 -900 Descending FlightAware ADS-B
01:20PM 39.1938 116.9165 North 407 468 13,900 -646 Descending FlightAware ADS-B
01:21PM 39.2615 116.9215 North 400 460 13,700 -545 Descending FlightAware ADS-B
01:22PM 39.3153 116.9257 North 374 430 13,300 -900 Descending FlightAware ADS-B
01:22PM 39.3647 116.9294 North 351 404 12,800 -800 Descending FlightAware ADS-B
01:23PM 39.4116 116.9330 North 328 377 12,500 -689 Descending FlightAware ADS-B
01:23PM 39.4561 116.9365 North 308 354 12,100 -1,017 Descending FlightAware ADS-B
01:24PM 39.4979 116.9398 North 299 344 11,500 -1,500 Descending FlightAware ADS-B
01:24PM 39.5385 116.9419 North 300 345 10,600 -1,500 Descending FlightAware ADS-B
01:25PM 39.5804 116.9419 North 292 336 10,000 -1,364 Descending FlightAware ADS-B
01:25PM 39.6006 116.9419 North 291 335 9,600 -1,600 Descending FlightAware ADS-B
01:25PM 39.6208 116.9419 North 290 334 9,200 -1,400 Descending FlightAware ADS-B
01:25PM 39.6398 116.9419 North 290 334 8,900 -1,355 Descending FlightAware ADS-B
01:26PM 39.6617 116.9420 North 286 329 8,500 -1,161 Descending FlightAware ADS-B
01:26PM 39.6806 116.9420 North 282 325 8,300 -1,200 Descending FlightAware ADS-B
01:26PM 39.6998 116.9420 North 278 320 7,900 -1,241 Descending FlightAware ADS-B
01:26PM 39.7192 116.9421 North 274 315 7,700 -1,034 Descending FlightAware ADS-B
01:27PM 39.7378 116.9422 North 270 311 7,400 -1,200 Descending FlightAware ADS-B
01:27PM 39.7568 116.9422 North 266 306 7,100 -1,161 Descending FlightAware ADS-B
01:27PM 39.7749 116.9423 North 263 303 6,800 -1,200 Descending FlightAware ADS-B
01:27PM 39.7926 116.9423 North 260 299 6,500 -1,241 Descending FlightAware ADS-B
01:28PM 39.8113 116.9423 North 258 297 6,200 -1,200 Descending FlightAware ADS-B
01:28PM 39.8227 116.9421 358° North 254 292 6,000 -1,200 Descending FlightAware ADS-B
01:28PM 39.8287 116.9409 351° North 252 290 5,900 -1,091 Descending FlightAware ADS-B
01:28PM 39.8343 116.9387 340° North 251 289 5,800 -1,636 Descending FlightAware ADS-B
01:28PM 39.8395 116.9353 331° Northwest 249 287 5,600 -1,800 Descending FlightAware ADS-B
01:28PM 39.8436 116.9313 322° Northwest 249 287 5,500 -1,200 Descending FlightAware ADS-B
01:28PM 39.8473 116.9261 311° West 246 283 5,400 -1,200 Descending FlightAware ADS-B
01:28PM 39.8506 116.9188 299° West 244 281 5,300 -1,333 Descending FlightAware ADS-B
01:28PM 39.8523 116.9119 288° West 241 277 5,200 -1,333 Descending FlightAware ADS-B
01:28PM 39.8530 116.9048 275° West 238 274 5,100 -545 Descending FlightAware ADS-B
01:28PM 39.8528 116.8985 267° West 237 273 5,100 -545 Level FlightAware ADS-B
01:29PM 39.8520 116.8909 262° West 236 272 5,000 -1,200 Descending FlightAware ADS-B
01:29PM 39.8496 116.8694 263° West 234 269 4,700 -1,200 Descending FlightAware ADS-B
01:29PM 39.8477 116.8496 264° West 232 267 4,400 -1,241 Descending FlightAware ADS-B
01:29PM 39.8458 116.8288 264° West 231 266 4,100 -1,034 Descending FlightAware ADS-B
01:30PM 39.8435 116.8071 260° West 225 259 3,900 -900 Descending FlightAware ADS-B
01:30PM 39.8418 116.8010 252° West 223 257 3,800 -1,091 Descending FlightAware ADS-B
01:30PM 39.8397 116.7956 243° Southwest 221 254 3,700 -1,200 Descending FlightAware ADS-B
01:30PM 39.8366 116.7901 235° Southwest 220 253 3,600 -1,200 Descending FlightAware ADS-B
01:30PM 39.8330 116.7859 222° Southwest 219 252 3,500 -600 Descending FlightAware ADS-B
01:30PM 39.8281 116.7819 211° Southwest 221 254 3,500 -667 Level FlightAware ADS-B
01:30PM 39.8239 116.7797 200° South 222 255 3,400 -1,200 Descending FlightAware ADS-B
01:30PM 39.8204 116.7786 190° South 224 258 3,300 -600 Descending FlightAware ADS-B
01:30PM 39.8136 116.7781 178° South 228 262 3,300 -600 Level FlightAware ADS-B
01:30PM 39.8078 116.7789 172° South 231 266 3,200 -857 Descending FlightAware ADS-B
01:31PM 39.7918 116.7818 172° South 233 268 3,000 -968 Descending FlightAware ADS-B
01:31PM 39.7749 116.7827 187° South 233 268 2,700 -900 Descending FlightAware ADS-B
01:31PM 39.7707 116.7814 195° South 232 267 2,700 -667 Level FlightAware ADS-B
01:31PM 39.7657 116.7786 206° Southwest 231 266 2,600 -1,333 Descending FlightAware ADS-B
01:31PM 39.7613 116.7749 214° Southwest 230 265 2,500 -1,200 Descending FlightAware ADS-B
01:31PM 39.7574 116.7700 224° Southwest 229 264 2,400 -545 Descending FlightAware ADS-B
01:31PM 39.7549 116.7654 239° Southwest 228 262 2,400 -600 Level FlightAware ADS-B
01:31PM 39.7526 116.7593 247° West 227 261 2,300 -600 Descending FlightAware ADS-B
01:31PM 39.7512 116.7527 259° West 227 261 2,300  Level FlightAware ADS-B
01:32PM 39.7491 116.7288 265° West 230 265 2,300  Level FlightAware ADS-B
01:32PM 39.7501 116.7031 285° West 230 265 2,300  Level FlightAware ADS-B
01:32PM 39.7513 116.6992 291° West 230 265 2,300  Level FlightAware ADS-B
01:32PM 39.7545 116.6926 302° West 232 267 2,300  Level FlightAware ADS-B
01:32PM 39.7564 116.6898 308° West 233 268 2,300  Level FlightAware ADS-B
01:32PM 39.7705 116.6755 325° Northwest 234 269 2,300  Level FlightAware ADS-B
01:33PM 39.7840 116.6632 325° Northwest 233 268 2,300  Level FlightAware ADS-B
01:33PM 39.8031 116.6473 330° Northwest 233 268 2,300  Level FlightAware ADS-B
01:33PM 39.8061 116.6457 339° North 233 268 2,300  Level FlightAware ADS-B
01:34PM 39.8399 116.6340 339° North 233 268 2,300  Level FlightAware ADS-B
01:34PM 39.8649 116.6298 339° North 233 268 2,300  Level FlightAware ADS-B
01:34PM 39.8761 116.6282 354° North 229 264 2,300  Level FlightAware ADS-B
01:35PM 39.8970 116.6250 354° North 229 264 2,300  Level FlightAware ADS-B
01:35PM 39.9139 116.6224 354° North 182 209 2,300  Level FlightAware ADS-B
01:35PM 39.9299 116.6198 353° North 173 199 2,300  Level FlightAware ADS-B
01:36PM 39.9473 116.6171 354° North 173 199 2,300 -150 Level FlightAware ADS-B
01:36PM 39.9602 116.6150 353° North 173 199 2,200 -667 Descending FlightAware ADS-B
01:36PM 39.9744 116.6128 354° North 160 184 1,900 -800 Descending FlightAware ADS-B
01:37PM 40.0265 116.6046 354° North 156 180 1,000 -730 Descending FlightAware ADS-B
01:40PM 40.0801 116.5846 344° North  Level Estimated

Login

Don't have an account? Register now (free) for customized features, flight alerts, and more!